sensor_id;sensor_type;location;lat;lon;timestamp;P1;durP1;ratioP1;P2;durP2;ratioP2
76636;SDS011;65532;52.124;5.480;2023-01-04T00:01:24;2.60;;;1.10;;
76636;SDS011;65532;52.124;5.480;2023-01-04T00:03:50;8.32;;;0.68;;
76636;SDS011;65532;52.124;5.480;2023-01-04T00:06:17;6.57;;;0.75;;
76636;SDS011;65532;52.124;5.480;2023-01-04T00:08:44;4.60;;;1.98;;
76636;SDS011;65532;52.124;5.480;2023-01-04T00:11:15;5.32;;;0.88;;
76636;SDS011;65532;52.124;5.480;2023-01-04T00:13:44;3.28;;;1.25;;
76636;SDS011;65532;52.124;5.480;2023-01-04T00:16:12;4.13;;;1.25;;
76636;SDS011;65532;52.124;5.480;2023-01-04T00:18:41;2.08;;;0.52;;
76636;SDS011;65532;52.124;5.480;2023-01-04T00:21:24;4.80;;;1.60;;
76636;SDS011;65532;52.124;5.480;2023-01-04T00:23:53;3.05;;;0.40;;
76636;SDS011;65532;52.124;5.480;2023-01-04T00:26:28;3.10;;;0.93;;
76636;SDS011;65532;52.124;5.480;2023-01-04T00:29:04;2.08;;;0.63;;
76636;SDS011;65532;52.124;5.480;2023-01-04T00:31:32;4.00;;;0.57;;
76636;SDS011;65532;52.124;5.480;2023-01-04T00:34:00;4.50;;;1.13;;
76636;SDS011;65532;52.124;5.480;2023-01-04T00:36:28;4.15;;;1.00;;
76636;SDS011;65532;52.124;5.480;2023-01-04T00:38:56;6.47;;;1.35;;
76636;SDS011;65532;52.124;5.480;2023-01-04T00:41:39;6.32;;;0.63;;
76636;SDS011;65532;52.124;5.480;2023-01-04T00:44:26;1.90;;;0.50;;
76636;SDS011;65532;52.124;5.480;2023-01-04T00:46:53;3.05;;;0.90;;
76636;SDS011;65532;52.124;5.480;2023-01-04T00:49:19;2.38;;;0.80;;
76636;SDS011;65532;52.124;5.480;2023-01-04T00:51:46;5.28;;;1.02;;
76636;SDS011;65532;52.124;5.480;2023-01-04T00:54:13;3.55;;;1.30;;
76636;SDS011;65532;52.124;5.480;2023-01-04T00:56:40;1.65;;;0.52;;
76636;SDS011;65532;52.124;5.480;2023-01-04T00:59:08;5.43;;;1.05;;
76636;SDS011;65532;52.124;5.480;2023-01-04T01:01:37;3.58;;;0.60;;
76636;SDS011;65532;52.124;5.480;2023-01-04T01:04:05;2.88;;;1.45;;
76636;SDS011;65532;52.124;5.480;2023-01-04T01:06:32;4.22;;;0.30;;
76636;SDS011;65532;52.124;5.480;2023-01-04T01:08:59;1.30;;;0.30;;
76636;SDS011;65532;52.124;5.480;2023-01-04T01:11:26;2.15;;;0.63;;
76636;SDS011;65532;52.124;5.480;2023-01-04T01:13:53;5.00;;;0.50;;
76636;SDS011;65532;52.124;5.480;2023-01-04T01:16:21;2.05;;;0.70;;
76636;SDS011;65532;52.124;5.480;2023-01-04T01:19:08;1.95;;;0.95;;
76636;SDS011;65532;52.124;5.480;2023-01-04T01:21:35;2.13;;;0.95;;
76636;SDS011;65532;52.124;5.480;2023-01-04T01:24:03;2.33;;;1.20;;
76636;SDS011;65532;52.124;5.480;2023-01-04T01:26:29;1.67;;;0.63;;
76636;SDS011;65532;52.124;5.480;2023-01-04T01:28:56;2.25;;;0.32;;
76636;SDS011;65532;52.124;5.480;2023-01-04T01:31:24;1.10;;;0.40;;
76636;SDS011;65532;52.124;5.480;2023-01-04T01:33:53;1.10;;;0.60;;
76636;SDS011;65532;52.124;5.480;2023-01-04T01:36:22;2.47;;;0.95;;
76636;SDS011;65532;52.124;5.480;2023-01-04T01:38:49;3.00;;;1.00;;
76636;SDS011;65532;52.124;5.480;2023-01-04T01:49:35;2.13;;;1.08;;
76636;SDS011;65532;52.124;5.480;2023-01-04T01:52:04;3.42;;;0.73;;
76636;SDS011;65532;52.124;5.480;2023-01-04T01:55:07;1.50;;;0.30;;
76636;SDS011;65532;52.124;5.480;2023-01-04T01:57:30;2.45;;;0.85;;
76636;SDS011;65532;52.124;5.480;2023-01-04T02:00:00;2.75;;;0.35;;
76636;SDS011;65532;52.124;5.480;2023-01-04T02:02:40;1.65;;;0.52;;
76636;SDS011;65532;52.124;5.480;2023-01-04T02:05:12;3.58;;;1.23;;
76636;SDS011;65532;52.124;5.480;2023-01-04T02:07:39;1.65;;;1.00;;
76636;SDS011;65532;52.124;5.480;2023-01-04T02:10:06;1.83;;;0.85;;
76636;SDS011;65532;52.124;5.480;2023-01-04T02:12:32;2.88;;;0.57;;
76636;SDS011;65532;52.124;5.480;2023-01-04T02:14:59;1.70;;;0.32;;
76636;SDS011;65532;52.124;5.480;2023-01-04T02:17:40;1.52;;;0.85;;
76636;SDS011;65532;52.124;5.480;2023-01-04T02:20:23;2.83;;;0.95;;
76636;SDS011;65532;52.124;5.480;2023-01-04T02:28:46;2.17;;;1.02;;
76636;SDS011;65532;52.124;5.480;2023-01-04T02:31:36;1.40;;;0.40;;
76636;SDS011;65532;52.124;5.480;2023-01-04T02:40:15;3.88;;;0.77;;
76636;SDS011;65532;52.124;5.480;2023-01-04T02:46:00;1.63;;;0.77;;
76636;SDS011;65532;52.124;5.480;2023-01-04T02:48:38;2.13;;;0.90;;
76636;SDS011;65532;52.124;5.480;2023-01-04T02:51:34;2.70;;;0.75;;
76636;SDS011;65532;52.124;5.480;2023-01-04T02:54:03;2.13;;;1.00;;
76636;SDS011;65532;52.124;5.480;2023-01-04T02:56:51;3.67;;;0.70;;
76636;SDS011;65532;52.124;5.480;2023-01-04T03:02:56;2.85;;;0.60;;
76636;SDS011;65532;52.124;5.480;2023-01-04T03:11:43;3.20;;;1.15;;
76636;SDS011;65532;52.124;5.480;2023-01-04T03:14:37;3.45;;;0.68;;
76636;SDS011;65532;52.124;5.480;2023-01-04T03:17:17;3.08;;;1.65;;
76636;SDS011;65532;52.124;5.480;2023-01-04T03:19:47;4.45;;;1.35;;
76636;SDS011;65532;52.124;5.480;2023-01-04T03:22:32;3.53;;;1.63;;
76636;SDS011;65532;52.124;5.480;2023-01-04T03:25:22;1.83;;;1.38;;
76636;SDS011;65532;52.124;5.480;2023-01-04T03:28:12;2.15;;;0.90;;
76636;SDS011;65532;52.124;5.480;2023-01-04T03:31:05;2.85;;;1.83;;
76636;SDS011;65532;52.124;5.480;2023-01-04T03:33:56;3.10;;;0.73;;
76636;SDS011;65532;52.124;5.480;2023-01-04T03:40:14;2.00;;;0.77;;
76636;SDS011;65532;52.124;5.480;2023-01-04T03:43:10;2.10;;;0.40;;
76636;SDS011;65532;52.124;5.480;2023-01-04T03:45:57;3.13;;;1.38;;
76636;SDS011;65532;52.124;5.480;2023-01-04T03:51:32;2.63;;;0.85;;
76636;SDS011;65532;52.124;5.480;2023-01-04T03:54:22;2.50;;;0.75;;
76636;SDS011;65532;52.124;5.480;2023-01-04T03:56:54;3.13;;;2.33;;
76636;SDS011;65532;52.124;5.480;2023-01-04T03:59:21;2.90;;;1.58;;
76636;SDS011;65532;52.124;5.480;2023-01-04T04:01:48;2.35;;;0.98;;
76636;SDS011;65532;52.124;5.480;2023-01-04T04:04:15;3.38;;;1.80;;
76636;SDS011;65532;52.124;5.480;2023-01-04T04:07:01;3.05;;;1.60;;
76636;SDS011;65532;52.124;5.480;2023-01-04T04:09:45;3.72;;;1.48;;
76636;SDS011;65532;52.124;5.480;2023-01-04T04:12:12;2.10;;;0.85;;
76636;SDS011;65532;52.124;5.480;2023-01-04T04:14:38;2.95;;;2.03;;
76636;SDS011;65532;52.124;5.480;2023-01-04T04:17:05;3.60;;;1.50;;
76636;SDS011;65532;52.124;5.480;2023-01-04T04:19:32;1.30;;;0.75;;
76636;SDS011;65532;52.124;5.480;2023-01-04T04:21:58;2.17;;;1.50;;
76636;SDS011;65532;52.124;5.480;2023-01-04T04:24:25;1.80;;;0.93;;
76636;SDS011;65532;52.124;5.480;2023-01-04T04:26:52;4.50;;;1.02;;
76636;SDS011;65532;52.124;5.480;2023-01-04T04:29:20;2.83;;;0.77;;
76636;SDS011;65532;52.124;5.480;2023-01-04T04:31:47;3.15;;;1.40;;
76636;SDS011;65532;52.124;5.480;2023-01-04T04:34:14;1.80;;;0.90;;
76636;SDS011;65532;52.124;5.480;2023-01-04T04:36:41;4.68;;;1.88;;
76636;SDS011;65532;52.124;5.480;2023-01-04T04:39:07;1.95;;;0.82;;
76636;SDS011;65532;52.124;5.480;2023-01-04T04:41:34;4.50;;;1.48;;
76636;SDS011;65532;52.124;5.480;2023-01-04T04:44:04;2.72;;;1.55;;
76636;SDS011;65532;52.124;5.480;2023-01-04T04:46:32;3.20;;;1.02;;
76636;SDS011;65532;52.124;5.480;2023-01-04T04:48:59;2.05;;;0.73;;
76636;SDS011;65532;52.124;5.480;2023-01-04T04:51:26;2.25;;;1.40;;
76636;SDS011;65532;52.124;5.480;2023-01-04T04:53:52;2.42;;;1.55;;
76636;SDS011;65532;52.124;5.480;2023-01-04T04:56:19;1.88;;;0.90;;
76636;SDS011;65532;52.124;5.480;2023-01-04T04:58:46;2.75;;;0.98;;
76636;SDS011;65532;52.124;5.480;2023-01-04T05:01:13;2.22;;;1.17;;
76636;SDS011;65532;52.124;5.480;2023-01-04T05:03:40;3.28;;;1.33;;
76636;SDS011;65532;52.124;5.480;2023-01-04T05:06:07;3.67;;;2.45;;
76636;SDS011;65532;52.124;5.480;2023-01-04T05:08:33;2.78;;;1.60;;
76636;SDS011;65532;52.124;5.480;2023-01-04T05:11:03;2.33;;;0.80;;
76636;SDS011;65532;52.124;5.480;2023-01-04T05:13:33;4.13;;;1.52;;
76636;SDS011;65532;52.124;5.480;2023-01-04T05:16:00;2.50;;;1.77;;
76636;SDS011;65532;52.124;5.480;2023-01-04T05:18:27;2.95;;;1.65;;
76636;SDS011;65532;52.124;5.480;2023-01-04T05:20:54;2.45;;;1.23;;
76636;SDS011;65532;52.124;5.480;2023-01-04T05:23:21;5.45;;;0.95;;
76636;SDS011;65532;52.124;5.480;2023-01-04T05:25:52;4.90;;;1.65;;
76636;SDS011;65532;52.124;5.480;2023-01-04T05:28:22;3.10;;;1.55;;
76636;SDS011;65532;52.124;5.480;2023-01-04T05:30:49;2.60;;;2.13;;
76636;SDS011;65532;52.124;5.480;2023-01-04T05:33:17;2.88;;;1.63;;
76636;SDS011;65532;52.124;5.480;2023-01-04T05:35:49;2.88;;;1.52;;
76636;SDS011;65532;52.124;5.480;2023-01-04T05:38:16;3.40;;;1.30;;
76636;SDS011;65532;52.124;5.480;2023-01-04T05:40:43;4.10;;;1.13;;
76636;SDS011;65532;52.124;5.480;2023-01-04T05:43:10;4.45;;;2.13;;
76636;SDS011;65532;52.124;5.480;2023-01-04T05:45:39;4.50;;;1.17;;
76636;SDS011;65532;52.124;5.480;2023-01-04T05:48:06;3.88;;;1.70;;
76636;SDS011;65532;52.124;5.480;2023-01-04T05:50:33;4.13;;;1.58;;
76636;SDS011;65532;52.124;5.480;2023-01-04T05:53:02;3.38;;;1.55;;
76636;SDS011;65532;52.124;5.480;2023-01-04T05:55:30;3.00;;;1.10;;
76636;SDS011;65532;52.124;5.480;2023-01-04T05:57:56;2.20;;;1.23;;
76636;SDS011;65532;52.124;5.480;2023-01-04T06:00:23;2.28;;;1.27;;
76636;SDS011;65532;52.124;5.480;2023-01-04T06:02:49;3.65;;;1.77;;
76636;SDS011;65532;52.124;5.480;2023-01-04T06:05:18;2.95;;;1.17;;
76636;SDS011;65532;52.124;5.480;2023-01-04T06:07:44;2.88;;;1.67;;
76636;SDS011;65532;52.124;5.480;2023-01-04T06:10:11;2.47;;;1.08;;
76636;SDS011;65532;52.124;5.480;2023-01-04T06:12:38;3.38;;;1.85;;
76636;SDS011;65532;52.124;5.480;2023-01-04T06:15:05;2.65;;;1.00;;
76636;SDS011;65532;52.124;5.480;2023-01-04T06:17:33;2.40;;;1.10;;
76636;SDS011;65532;52.124;5.480;2023-01-04T06:20:00;2.60;;;1.65;;
76636;SDS011;65532;52.124;5.480;2023-01-04T06:22:28;2.30;;;1.13;;
76636;SDS011;65532;52.124;5.480;2023-01-04T06:24:54;2.83;;;1.55;;
76636;SDS011;65532;52.124;5.480;2023-01-04T06:27:21;2.70;;;1.40;;
76636;SDS011;65532;52.124;5.480;2023-01-04T06:29:47;2.00;;;1.27;;
76636;SDS011;65532;52.124;5.480;2023-01-04T06:32:14;3.38;;;0.88;;
76636;SDS011;65532;52.124;5.480;2023-01-04T06:34:40;3.88;;;1.30;;
76636;SDS011;65532;52.124;5.480;2023-01-04T06:37:07;2.17;;;0.98;;
76636;SDS011;65532;52.124;5.480;2023-01-04T06:39:35;2.78;;;0.93;;
76636;SDS011;65532;52.124;5.480;2023-01-04T06:42:02;2.25;;;0.77;;
76636;SDS011;65532;52.124;5.480;2023-01-04T06:44:32;3.92;;;1.42;;
76636;SDS011;65532;52.124;5.480;2023-01-04T06:46:59;4.57;;;1.30;;
76636;SDS011;65532;52.124;5.480;2023-01-04T06:49:25;2.03;;;0.63;;
76636;SDS011;65532;52.124;5.480;2023-01-04T06:51:52;2.55;;;0.65;;
76636;SDS011;65532;52.124;5.480;2023-01-04T06:54:18;1.98;;;1.33;;
76636;SDS011;65532;52.124;5.480;2023-01-04T06:56:45;3.20;;;0.90;;
76636;SDS011;65532;52.124;5.480;2023-01-04T06:59:11;2.97;;;1.40;;
76636;SDS011;65532;52.124;5.480;2023-01-04T07:01:38;2.80;;;1.52;;
76636;SDS011;65532;52.124;5.480;2023-01-04T07:04:04;2.80;;;0.82;;
76636;SDS011;65532;52.124;5.480;2023-01-04T07:06:31;2.42;;;0.75;;
76636;SDS011;65532;52.124;5.480;2023-01-04T07:08:57;4.90;;;1.45;;
76636;SDS011;65532;52.124;5.480;2023-01-04T07:11:24;4.30;;;1.15;;
76636;SDS011;65532;52.124;5.480;2023-01-04T07:13:50;2.15;;;0.40;;
76636;SDS011;65532;52.124;5.480;2023-01-04T07:16:18;2.30;;;1.17;;
76636;SDS011;65532;52.124;5.480;2023-01-04T07:18:45;2.53;;;0.63;;
76636;SDS011;65532;52.124;5.480;2023-01-04T07:21:11;2.15;;;1.25;;
76636;SDS011;65532;52.124;5.480;2023-01-04T07:23:38;1.73;;;0.85;;
76636;SDS011;65532;52.124;5.480;2023-01-04T07:26:04;2.80;;;1.52;;
76636;SDS011;65532;52.124;5.480;2023-01-04T07:28:30;4.10;;;1.85;;
76636;SDS011;65532;52.124;5.480;2023-01-04T07:31:16;2.67;;;0.95;;
76636;SDS011;65532;52.124;5.480;2023-01-04T07:33:42;3.58;;;0.60;;
76636;SDS011;65532;52.124;5.480;2023-01-04T07:36:09;2.30;;;0.85;;
76636;SDS011;65532;52.124;5.480;2023-01-04T07:38:35;3.00;;;1.00;;
76636;SDS011;65532;52.124;5.480;2023-01-04T07:41:02;2.55;;;1.55;;
76636;SDS011;65532;52.124;5.480;2023-01-04T07:43:29;3.70;;;1.38;;
76636;SDS011;65532;52.124;5.480;2023-01-04T07:45:55;2.42;;;0.63;;
76636;SDS011;65532;52.124;5.480;2023-01-04T07:48:22;6.05;;;1.65;;
76636;SDS011;65532;52.124;5.480;2023-01-04T07:50:49;2.83;;;0.88;;
76636;SDS011;65532;52.124;5.480;2023-01-04T07:53:15;2.55;;;0.60;;
76636;SDS011;65532;52.124;5.480;2023-01-04T07:55:42;3.13;;;0.75;;
76636;SDS011;65532;52.124;5.480;2023-01-04T07:58:08;2.92;;;0.85;;
76636;SDS011;65532;52.124;5.480;2023-01-04T08:00:35;3.38;;;0.57;;
76636;SDS011;65532;52.124;5.480;2023-01-04T08:03:02;3.90;;;1.10;;
76636;SDS011;65532;52.124;5.480;2023-01-04T08:05:32;1.70;;;1.17;;
76636;SDS011;65532;52.124;5.480;2023-01-04T08:07:59;5.60;;;0.40;;
76636;SDS011;65532;52.124;5.480;2023-01-04T08:10:26;2.53;;;0.28;;
76636;SDS011;65532;52.124;5.480;2023-01-04T08:12:53;2.22;;;0.55;;
76636;SDS011;65532;52.124;5.480;2023-01-04T08:15:20;1.90;;;0.70;;
76636;SDS011;65532;52.124;5.480;2023-01-04T08:17:46;5.90;;;0.60;;
76636;SDS011;65532;52.124;5.480;2023-01-04T08:20:13;1.90;;;1.05;;
76636;SDS011;65532;52.124;5.480;2023-01-04T08:22:39;2.83;;;0.65;;
76636;SDS011;65532;52.124;5.480;2023-01-04T08:25:06;1.90;;;0.70;;
76636;SDS011;65532;52.124;5.480;2023-01-04T08:27:32;1.35;;;0.63;;
76636;SDS011;65532;52.124;5.480;2023-01-04T08:29:59;3.03;;;0.57;;
76636;SDS011;65532;52.124;5.480;2023-01-04T08:32:25;2.65;;;0.80;;
76636;SDS011;65532;52.124;5.480;2023-01-04T08:34:52;1.48;;;0.57;;
76636;SDS011;65532;52.124;5.480;2023-01-04T08:37:19;1.80;;;0.50;;
76636;SDS011;65532;52.124;5.480;2023-01-04T08:39:46;2.28;;;0.30;;
76636;SDS011;65532;52.124;5.480;2023-01-04T08:42:15;2.13;;;0.43;;
76636;SDS011;65532;52.124;5.480;2023-01-04T08:44:53;1.13;;;0.45;;
76636;SDS011;65532;52.124;5.480;2023-01-04T08:47:25;1.50;;;0.43;;
76636;SDS011;65532;52.124;5.480;2023-01-04T08:49:53;2.22;;;0.35;;
76636;SDS011;65532;52.124;5.480;2023-01-04T08:52:20;1.35;;;0.60;;
76636;SDS011;65532;52.124;5.480;2023-01-04T08:54:47;0.88;;;0.20;;
76636;SDS011;65532;52.124;5.480;2023-01-04T08:57:17;1.10;;;0.75;;
76636;SDS011;65532;52.124;5.480;2023-01-04T08:59:44;1.20;;;0.73;;
76636;SDS011;65532;52.124;5.480;2023-01-04T09:02:18;1.55;;;0.68;;
76636;SDS011;65532;52.124;5.480;2023-01-04T09:04:50;1.20;;;0.50;;
76636;SDS011;65532;52.124;5.480;2023-01-04T09:07:17;1.25;;;0.45;;
76636;SDS011;65532;52.124;5.480;2023-01-04T09:09:43;1.27;;;0.40;;
76636;SDS011;65532;52.124;5.480;2023-01-04T09:12:10;1.20;;;0.50;;
76636;SDS011;65532;52.124;5.480;2023-01-04T09:14:37;1.75;;;0.43;;
76636;SDS011;65532;52.124;5.480;2023-01-04T09:17:04;1.52;;;0.35;;
76636;SDS011;65532;52.124;5.480;2023-01-04T09:19:30;4.35;;;0.60;;
76636;SDS011;65532;52.124;5.480;2023-01-04T09:21:57;1.58;;;0.43;;
76636;SDS011;65532;52.124;5.480;2023-01-04T09:24:24;1.92;;;0.60;;
76636;SDS011;65532;52.124;5.480;2023-01-04T09:26:51;1.30;;;0.75;;
76636;SDS011;65532;52.124;5.480;2023-01-04T09:29:17;1.30;;;0.80;;
76636;SDS011;65532;52.124;5.480;2023-01-04T09:31:44;1.63;;;0.50;;
76636;SDS011;65532;52.124;5.480;2023-01-04T09:34:11;2.03;;;0.68;;
76636;SDS011;65532;52.124;5.480;2023-01-04T09:36:42;2.08;;;0.60;;
76636;SDS011;65532;52.124;5.480;2023-01-04T09:39:10;1.92;;;0.70;;
76636;SDS011;65532;52.124;5.480;2023-01-04T09:50:03;1.50;;;0.57;;
76636;SDS011;65532;52.124;5.480;2023-01-04T09:52:40;2.63;;;0.63;;
76636;SDS011;65532;52.124;5.480;2023-01-04T09:55:19;2.58;;;0.65;;
76636;SDS011;65532;52.124;5.480;2023-01-04T09:58:46;1.55;;;0.57;;
76636;SDS011;65532;52.124;5.480;2023-01-04T10:01:04;1.85;;;0.60;;
76636;SDS011;65532;52.124;5.480;2023-01-04T10:03:37;1.85;;;1.15;;
76636;SDS011;65532;52.124;5.480;2023-01-04T10:06:06;1.80;;;0.70;;
76636;SDS011;65532;52.124;5.480;2023-01-04T10:08:38;1.45;;;0.50;;
76636;SDS011;65532;52.124;5.480;2023-01-04T10:11:16;1.40;;;0.52;;
76636;SDS011;65532;52.124;5.480;2023-01-04T10:14:03;1.48;;;0.35;;
76636;SDS011;65532;52.124;5.480;2023-01-04T10:16:40;1.30;;;0.50;;
76636;SDS011;65532;52.124;5.480;2023-01-04T10:19:41;2.08;;;0.77;;
76636;SDS011;65532;52.124;5.480;2023-01-04T10:25:20;1.23;;;0.73;;
76636;SDS011;65532;52.124;5.480;2023-01-04T10:28:02;2.65;;;0.52;;
76636;SDS011;65532;52.124;5.480;2023-01-04T10:35:47;1.38;;;0.30;;
76636;SDS011;65532;52.124;5.480;2023-01-04T10:38:16;1.10;;;0.60;;
76636;SDS011;65532;52.124;5.480;2023-01-04T10:40:49;1.42;;;0.70;;
76636;SDS011;65532;52.124;5.480;2023-01-04T10:43:32;1.00;;;0.30;;
76636;SDS011;65532;52.124;5.480;2023-01-04T10:46:21;0.80;;;0.30;;
76636;SDS011;65532;52.124;5.480;2023-01-04T10:48:57;1.30;;;0.50;;
76636;SDS011;65532;52.124;5.480;2023-01-04T10:51:35;1.30;;;0.52;;
76636;SDS011;65532;52.124;5.480;2023-01-04T10:54:15;1.85;;;0.60;;
76636;SDS011;65532;52.124;5.480;2023-01-04T10:57:10;1.92;;;0.63;;
76636;SDS011;65532;52.124;5.480;2023-01-04T11:02:21;1.65;;;0.63;;
76636;SDS011;65532;52.124;5.480;2023-01-04T11:07:44;1.27;;;0.32;;
76636;SDS011;65532;52.124;5.480;2023-01-04T11:10:30;1.85;;;0.20;;
76636;SDS011;65532;52.124;5.480;2023-01-04T11:13:13;0.90;;;0.38;;
76636;SDS011;65532;52.124;5.480;2023-01-04T11:15:39;4.05;;;0.60;;
76636;SDS011;65532;52.124;5.480;2023-01-04T11:18:08;0.55;;;0.22;;
76636;SDS011;65532;52.124;5.480;2023-01-04T11:20:36;0.75;;;0.43;;
76636;SDS011;65532;52.124;5.480;2023-01-04T11:23:05;1.05;;;0.30;;
76636;SDS011;65532;52.124;5.480;2023-01-04T11:25:37;0.88;;;0.25;;
76636;SDS011;65532;52.124;5.480;2023-01-04T11:28:15;1.75;;;0.35;;
76636;SDS011;65532;52.124;5.480;2023-01-04T11:30:49;3.38;;;0.75;;
76636;SDS011;65532;52.124;5.480;2023-01-04T11:33:23;0.70;;;0.25;;
76636;SDS011;65532;52.124;5.480;2023-01-04T11:35:51;3.15;;;0.73;;
76636;SDS011;65532;52.124;5.480;2023-01-04T11:38:21;1.17;;;1.05;;
76636;SDS011;65532;52.124;5.480;2023-01-04T11:41:03;2.83;;;0.47;;
76636;SDS011;65532;52.124;5.480;2023-01-04T11:43:32;1.08;;;0.25;;
76636;SDS011;65532;52.124;5.480;2023-01-04T11:46:04;2.97;;;0.93;;
76636;SDS011;65532;52.124;5.480;2023-01-04T11:48:47;1.45;;;0.22;;
76636;SDS011;65532;52.124;5.480;2023-01-04T11:56:57;1.35;;;0.50;;
76636;SDS011;65532;52.124;5.480;2023-01-04T12:02:35;1.63;;;0.32;;
76636;SDS011;65532;52.124;5.480;2023-01-04T12:05:22;1.73;;;0.25;;
76636;SDS011;65532;52.124;5.480;2023-01-04T12:07:55;1.77;;;0.50;;
76636;SDS011;65532;52.124;5.480;2023-01-04T12:10:23;2.88;;;0.43;;
76636;SDS011;65532;52.124;5.480;2023-01-04T12:12:52;2.75;;;1.05;;
76636;SDS011;65532;52.124;5.480;2023-01-04T12:15:25;2.35;;;1.08;;
76636;SDS011;65532;52.124;5.480;2023-01-04T12:18:06;2.22;;;1.20;;
76636;SDS011;65532;52.124;5.480;2023-01-04T12:20:41;4.47;;;0.88;;
76636;SDS011;65532;52.124;5.480;2023-01-04T12:23:08;4.75;;;0.88;;
76636;SDS011;65532;52.124;5.480;2023-01-04T12:25:39;3.85;;;0.45;;
76636;SDS011;65532;52.124;5.480;2023-01-04T12:28:26;1.60;;;0.22;;
76636;SDS011;65532;52.124;5.480;2023-01-04T12:30:54;1.88;;;0.95;;
76636;SDS011;65532;52.124;5.480;2023-01-04T12:41:13;1.90;;;1.23;;
76636;SDS011;65532;52.124;5.480;2023-01-04T12:43:39;2.38;;;0.60;;
76636;SDS011;65532;52.124;5.480;2023-01-04T12:55:00;5.43;;;1.73;;
76636;SDS011;65532;52.124;5.480;2023-01-04T12:57:35;2.83;;;2.05;;
76636;SDS011;65532;52.124;5.480;2023-01-04T13:00:04;2.55;;;0.82;;
76636;SDS011;65532;52.124;5.480;2023-01-04T13:02:37;5.53;;;0.30;;
76636;SDS011;65532;52.124;5.480;2023-01-04T13:08:07;3.85;;;0.88;;
76636;SDS011;65532;52.124;5.480;2023-01-04T13:10:36;4.25;;;0.60;;
76636;SDS011;65532;52.124;5.480;2023-01-04T13:19:09;2.67;;;1.67;;
76636;SDS011;65532;52.124;5.480;2023-01-04T13:21:44;9.95;;;1.67;;
76636;SDS011;65532;52.124;5.480;2023-01-04T13:26:48;2.00;;;0.60;;
76636;SDS011;65532;52.124;5.480;2023-01-04T13:31:50;5.05;;;0.77;;
76636;SDS011;65532;52.124;5.480;2023-01-04T13:39:34;3.03;;;0.52;;
76636;SDS011;65532;52.124;5.480;2023-01-04T13:42:02;4.43;;;0.65;;
76636;SDS011;65532;52.124;5.480;2023-01-04T13:47:35;6.93;;;0.65;;
76636;SDS011;65532;52.124;5.480;2023-01-04T13:50:04;4.82;;;2.15;;
76636;SDS011;65532;52.124;5.480;2023-01-04T13:52:42;5.57;;;0.80;;
76636;SDS011;65532;52.124;5.480;2023-01-04T13:55:28;4.53;;;0.60;;
76636;SDS011;65532;52.124;5.480;2023-01-04T14:00:24;2.42;;;0.45;;
76636;SDS011;65532;52.124;5.480;2023-01-04T14:05:50;3.90;;;0.63;;
76636;SDS011;65532;52.124;5.480;2023-01-04T14:08:32;4.78;;;1.38;;
76636;SDS011;65532;52.124;5.480;2023-01-04T14:11:13;3.67;;;0.85;;
76636;SDS011;65532;52.124;5.480;2023-01-04T14:14:02;4.15;;;0.75;;
76636;SDS011;65532;52.124;5.480;2023-01-04T14:16:38;3.63;;;0.90;;
76636;SDS011;65532;52.124;5.480;2023-01-04T14:24:47;5.13;;;0.20;;
76636;SDS011;65532;52.124;5.480;2023-01-04T14:27:35;3.72;;;0.85;;
76636;SDS011;65532;52.124;5.480;2023-01-04T14:32:54;4.07;;;0.68;;
76636;SDS011;65532;52.124;5.480;2023-01-04T14:35:25;6.47;;;0.50;;
76636;SDS011;65532;52.124;5.480;2023-01-04T14:37:53;4.85;;;0.95;;
76636;SDS011;65532;52.124;5.480;2023-01-04T14:40:28;4.50;;;0.68;;
76636;SDS011;65532;52.124;5.480;2023-01-04T14:42:59;7.65;;;0.70;;
76636;SDS011;65532;52.124;5.480;2023-01-04T14:45:25;5.00;;;0.80;;
76636;SDS011;65532;52.124;5.480;2023-01-04T14:47:52;2.63;;;0.82;;
76636;SDS011;65532;52.124;5.480;2023-01-04T14:50:18;2.97;;;0.80;;
76636;SDS011;65532;52.124;5.480;2023-01-04T14:52:49;3.85;;;0.45;;
76636;SDS011;65532;52.124;5.480;2023-01-04T14:55:19;7.55;;;0.68;;
76636;SDS011;65532;52.124;5.480;2023-01-04T14:57:48;5.22;;;1.08;;
76636;SDS011;65532;52.124;5.480;2023-01-04T15:00:14;3.17;;;0.20;;
76636;SDS011;65532;52.124;5.480;2023-01-04T15:02:45;5.82;;;1.17;;
76636;SDS011;65532;52.124;5.480;2023-01-04T15:05:15;4.95;;;0.50;;
76636;SDS011;65532;52.124;5.480;2023-01-04T15:07:45;4.95;;;0.63;;
76636;SDS011;65532;52.124;5.480;2023-01-04T15:10:30;13.73;;;1.27;;
76636;SDS011;65532;52.124;5.480;2023-01-04T15:12:56;1.30;;;0.65;;
76636;SDS011;65532;52.124;5.480;2023-01-04T15:15:25;6.90;;;0.85;;
76636;SDS011;65532;52.124;5.480;2023-01-04T15:17:52;7.53;;;0.88;;
76636;SDS011;65532;52.124;5.480;2023-01-04T15:20:18;5.35;;;0.93;;
76636;SDS011;65532;52.124;5.480;2023-01-04T15:22:45;6.85;;;1.75;;
76636;SDS011;65532;52.124;5.480;2023-01-04T15:25:11;6.35;;;0.47;;
76636;SDS011;65532;52.124;5.480;2023-01-04T15:27:38;4.07;;;0.57;;
76636;SDS011;65532;52.124;5.480;2023-01-04T15:30:08;5.78;;;0.75;;
76636;SDS011;65532;52.124;5.480;2023-01-04T15:32:36;4.18;;;0.57;;
76636;SDS011;65532;52.124;5.480;2023-01-04T15:35:03;7.15;;;1.30;;
76636;SDS011;65532;52.124;5.480;2023-01-04T15:37:29;7.10;;;1.10;;
76636;SDS011;65532;52.124;5.480;2023-01-04T15:39:56;13.82;;;1.67;;
76636;SDS011;65532;52.124;5.480;2023-01-04T15:42:28;5.18;;;1.00;;
76636;SDS011;65532;52.124;5.480;2023-01-04T15:45:13;5.70;;;1.90;;
76636;SDS011;65532;52.124;5.480;2023-01-04T15:47:39;9.18;;;1.42;;
76636;SDS011;65532;52.124;5.480;2023-01-04T15:50:06;5.75;;;1.63;;
76636;SDS011;65532;52.124;5.480;2023-01-04T15:52:33;8.00;;;1.60;;
76636;SDS011;65532;52.124;5.480;2023-01-04T15:55:00;10.57;;;1.75;;
76636;SDS011;65532;52.124;5.480;2023-01-04T15:57:27;5.47;;;0.85;;
76636;SDS011;65532;52.124;5.480;2023-01-04T15:59:53;13.25;;;2.22;;
76636;SDS011;65532;52.124;5.480;2023-01-04T16:02:20;13.13;;;2.10;;
76636;SDS011;65532;52.124;5.480;2023-01-04T16:04:47;8.48;;;1.05;;
76636;SDS011;65532;52.124;5.480;2023-01-04T16:07:14;16.33;;;2.53;;
76636;SDS011;65532;52.124;5.480;2023-01-04T16:09:41;15.38;;;1.55;;
76636;SDS011;65532;52.124;5.480;2023-01-04T16:12:08;8.85;;;0.40;;
76636;SDS011;65532;52.124;5.480;2023-01-04T16:14:53;11.98;;;1.55;;
76636;SDS011;65532;52.124;5.480;2023-01-04T16:17:19;5.57;;;0.82;;
76636;SDS011;65532;52.124;5.480;2023-01-04T16:19:46;10.90;;;1.70;;
76636;SDS011;65532;52.124;5.480;2023-01-04T16:22:12;14.27;;;1.50;;
76636;SDS011;65532;52.124;5.480;2023-01-04T16:24:38;12.75;;;1.42;;
76636;SDS011;65532;52.124;5.480;2023-01-04T16:27:25;10.07;;;1.05;;
76636;SDS011;65532;52.124;5.480;2023-01-04T16:30:01;9.50;;;1.13;;
76636;SDS011;65532;52.124;5.480;2023-01-04T16:32:28;10.15;;;1.30;;
76636;SDS011;65532;52.124;5.480;2023-01-04T16:34:54;8.68;;;0.73;;
76636;SDS011;65532;52.124;5.480;2023-01-04T16:37:24;9.35;;;1.83;;
76636;SDS011;65532;52.124;5.480;2023-01-04T16:39:52;9.00;;;1.85;;
76636;SDS011;65532;52.124;5.480;2023-01-04T16:42:35;13.27;;;1.20;;
76636;SDS011;65532;52.124;5.480;2023-01-04T16:45:03;6.57;;;1.13;;
76636;SDS011;65532;52.124;5.480;2023-01-04T16:47:37;12.73;;;1.38;;
76636;SDS011;65532;52.124;5.480;2023-01-04T16:50:06;9.55;;;1.15;;
76636;SDS011;65532;52.124;5.480;2023-01-04T16:52:33;11.93;;;1.45;;
76636;SDS011;65532;52.124;5.480;2023-01-04T16:54:59;11.80;;;2.17;;
76636;SDS011;65532;52.124;5.480;2023-01-04T16:57:25;7.53;;;1.08;;
76636;SDS011;65532;52.124;5.480;2023-01-04T16:59:52;9.15;;;0.98;;
76636;SDS011;65532;52.124;5.480;2023-01-04T17:02:18;13.60;;;1.40;;
76636;SDS011;65532;52.124;5.480;2023-01-04T17:04:45;11.93;;;1.00;;
76636;SDS011;65532;52.124;5.480;2023-01-04T17:07:17;9.85;;;1.17;;
76636;SDS011;65532;52.124;5.480;2023-01-04T17:09:44;8.88;;;1.17;;
76636;SDS011;65532;52.124;5.480;2023-01-04T17:12:10;7.20;;;1.52;;
76636;SDS011;65532;52.124;5.480;2023-01-04T17:14:57;11.70;;;2.20;;